Havelock, Nebraska
Current Conditions -  °F | °C
As of 6:54 PM on Friday 24 Oct 2014 (Local Time) from KLNK Reporting Station
Clear Clear  
Wind Chill: 63°   Ceiling: Unl
Heat Index: 63°   Visibility: 10mi
Dew Point: 54°   Wind: 5mph
Humidity: 72%   Direction: 360°N
Pressure: 29.95"   Gusts: NA
Location:  40.8505°N, 96.6337°W
Report Text: KLNK 242354Z 36004KT 10SM CLR 17/12 A2995 RMK AO2 SLP138 T01720122 10250 20172 53013
Loading
Personal Weather Stations






























Interactive Weather Map New forecast layout! Learn more

10-Day Weather Forecast

Advertisements
Track Severe Weather on mobile